Easton, Maryland
Current Conditions -  °F | °C
As of 10:58 AM on Friday 24 Oct 2014 (Local Time) from KESN Reporting Station
Scattered Clouds Scattered Clouds  
Wind Chill: 63°   Ceiling: Unl
Heat Index: 63°   Visibility: 10mi
Dew Point: 48°   Wind: 16mph
Humidity: 59%   Direction: 320°NW
Pressure: 29.97"   Gusts: 23mph
Location:  38.78°N, 76.06°W
Report Text: KESN 241458Z 32014G20KT 10SM SCT060 17/09 A2997
Loading
Personal Weather Stations






























Interactive Weather Map New forecast layout! Learn more

10-Day Weather Forecast

Advertisements
Track Severe Weather on mobile